Time;durP1;ratioP1;P1;durP2;ratioP2;P2;SDS_P1;SDS_P2;PMS_P1;PMS_P2;Temp;Humidity;BMP_temperature;BMP_pressure;BME280_temperature;BME280_humidity;BME280_pressure;Samples;Min_cycle;Max_cycle;Signal;HPM_P1;HPM_P2
2021/11/24 00:02:20;;;;;;;6.18;1.38;;;;;;;;;;6161738;23;20507;-92
2021/11/24 00:04:49;;;;;;;2.42;0.95;;;;;;;;;;6161158;23;20001;-92
2021/11/24 00:07:17;;;;;;;2.78;1.23;;;;;;;;;;6160954;23;20371;-92
2021/11/24 00:09:43;;;;;;;4.03;1.30;;;;;;;;;;6160652;23;20439;-92
2021/11/24 00:12:10;;;;;;;4.22;1.30;;;;;;;;;;6161567;23;20596;-93
2021/11/24 00:14:43;;;;;;;5.03;1.63;;;;;;;;;;6161224;23;20005;-92
2021/11/24 00:17:09;;;;;;;2.17;1.23;;;;;;;;;;6160985;23;20005;-92
2021/11/24 00:19:43;;;;;;;4.78;1.48;;;;;;;;;;6161264;23;20083;-93
2021/11/24 00:22:12;;;;;;;2.33;1.30;;;;;;;;;;6161459;23;20015;-93
2021/11/24 00:24:41;;;;;;;2.30;1.52;;;;;;;;;;6161161;23;20056;-92
2021/11/24 00:27:09;;;;;;;4.82;1.65;;;;;;;;;;6161310;23;20454;-92
2021/11/24 00:29:43;;;;;;;2.92;1.27;;;;;;;;;;6161260;23;20375;-93
2021/11/24 00:32:09;;;;;;;4.43;1.40;;;;;;;;;;6160752;23;20454;-92
2021/11/24 00:34:36;;;;;;;1.45;1.10;;;;;;;;;;6161730;23;20013;-93
2021/11/24 00:37:02;;;;;;;2.47;1.27;;;;;;;;;;6160696;23;20099;-93
2021/11/24 00:39:28;;;;;;;1.98;1.13;;;;;;;;;;6161196;23;20446;-92
2021/11/24 00:42:00;;;;;;;6.25;1.40;;;;;;;;;;6161063;23;20023;-92
2021/11/24 00:44:33;;;;;;;3.50;1.90;;;;;;;;;;6160750;23;19997;-93
2021/11/24 00:47:00;;;;;;;2.97;1.23;;;;;;;;;;6160600;23;20024;-93
2021/11/24 00:49:26;;;;;;;2.78;1.27;;;;;;;;;;6160589;23;20005;-92
2021/11/24 00:51:52;;;;;;;2.70;1.50;;;;;;;;;;6160882;23;20494;-92
2021/11/24 00:54:21;;;;;;;1.95;1.40;;;;;;;;;;6161905;23;20080;-91
2021/11/24 00:56:50;;;;;;;1.40;1.23;;;;;;;;;;6160982;23;20021;-93
2021/11/24 00:59:18;;;;;;;2.42;1.30;;;;;;;;;;6160863;23;20396;-91
2021/11/24 01:01:51;;;;;;;5.32;1.10;;;;;;;;;;6161056;23;19997;-92
2021/11/24 01:04:20;;;;;;;3.85;1.35;;;;;;;;;;6160759;23;20001;-92
2021/11/24 01:06:49;;;;;;;3.55;1.20;;;;;;;;;;6160679;23;20424;-92
2021/11/24 01:09:22;;;;;;;4.78;1.52;;;;;;;;;;6161098;23;20009;-92
2021/11/24 01:11:51;;;;;;;2.70;1.60;;;;;;;;;;6161730;23;20388;-93
2021/11/24 01:14:20;;;;;;;3.65;1.70;;;;;;;;;;6161703;23;20450;-92
2021/11/24 01:16:56;;;;;;;3.85;1.05;;;;;;;;;;6160588;23;20071;-93
2021/11/24 01:19:22;;;;;;;3.35;1.25;;;;;;;;;;6161268;23;20041;-93
2021/11/24 01:21:51;;;;;;;3.08;1.15;;;;;;;;;;6163809;23;20313;-92
2021/11/24 01:24:20;;;;;;;3.17;1.10;;;;;;;;;;6164390;23;20083;-93
2021/11/24 01:26:49;;;;;;;1.38;0.85;;;;;;;;;;6164727;23;20008;-93
2021/11/24 01:29:19;;;;;;;1.30;0.90;;;;;;;;;;6163989;23;20428;-93
2021/11/24 01:31:48;;;;;;;4.53;1.45;;;;;;;;;;6164055;23;20001;-93
2021/11/24 01:34:21;;;;;;;4.22;1.33;;;;;;;;;;6164075;23;20009;-92
2021/11/24 01:36:50;;;;;;;1.13;0.60;;;;;;;;;;6163982;23;20384;-92
2021/11/24 01:39:19;;;;;;;2.60;1.25;;;;;;;;;;6164422;23;20063;-92
2021/11/24 01:41:50;;;;;;;3.35;0.73;;;;;;;;;;6164053;23;20080;-92
2021/11/24 01:44:31;;;;;;;3.10;0.98;;;;;;;;;;6163899;23;20004;-92
2021/11/24 01:46:59;;;;;;;0.90;0.50;;;;;;;;;;6164216;23;20001;-92
2021/11/24 01:49:33;;;;;;;0.60;0.50;;;;;;;;;;6164277;23;20043;-93
2021/11/24 01:52:00;;;;;;;2.92;0.80;;;;;;;;;;6163946;23;20067;-92
2021/11/24 01:54:30;;;;;;;1.75;0.60;;;;;;;;;;6163964;23;20012;-93
2021/11/24 01:57:11;;;;;;;2.78;0.70;;;;;;;;;;6163923;23;20080;-93
2021/11/24 01:59:40;;;;;;;1.65;0.80;;;;;;;;;;6163688;23;20005;-92
2021/11/24 02:02:13;;;;;;;1.60;0.60;;;;;;;;;;6163736;23;20332;-92
2021/11/24 02:04:42;;;;;;;1.58;0.75;;;;;;;;;;6163834;23;20420;-92
2021/11/24 02:07:10;;;;;;;1.98;0.90;;;;;;;;;;6163783;23;20060;-92
2021/11/24 02:09:39;;;;;;;3.35;1.35;;;;;;;;;;6164092;23;20052;-93
2021/11/24 02:12:19;;;;;;;4.25;1.02;;;;;;;;;;6164326;23;20044;-92
2021/11/24 02:14:53;;;;;;;1.63;0.77;;;;;;;;;;6164332;23;19997;-92
2021/11/24 02:17:19;;;;;;;3.35;0.95;;;;;;;;;;6164565;23;20121;-94
2021/11/24 02:19:50;;;;;;;2.30;1.08;;;;;;;;;;6163795;23;20005;-93
2021/11/24 02:22:24;;;;;;;2.88;0.80;;;;;;;;;;6163712;23;20047;-92
2021/11/24 02:24:50;;;;;;;2.00;0.80;;;;;;;;;;6163976;23;20408;-93
2021/11/24 02:27:20;;;;;;;1.33;0.73;;;;;;;;;;6163723;23;20440;-93
2021/11/24 02:29:51;;;;;;;3.03;0.80;;;;;;;;;;6163520;23;19997;-92
2021/11/24 02:32:20;;;;;;;1.15;0.73;;;;;;;;;;6161998;23;20016;-92
2021/11/24 02:34:53;;;;;;;2.97;0.93;;;;;;;;;;6162414;23;20005;-92
2021/11/24 02:37:20;;;;;;;1.58;0.88;;;;;;;;;;6162021;23;20013;-92
2021/11/24 02:39:50;;;;;;;2.10;0.98;;;;;;;;;;6162013;23;20028;-92
2021/11/24 02:42:19;;;;;;;1.75;0.85;;;;;;;;;;6162010;23;20005;-92
2021/11/24 02:44:52;;;;;;;1.58;0.80;;;;;;;;;;6161953;23;20001;-91
2021/11/24 02:47:22;;;;;;;2.55;0.90;;;;;;;;;;6161846;23;19997;-93
2021/11/24 02:49:52;;;;;;;1.75;0.82;;;;;;;;;;6161966;23;20060;-92
2021/11/24 02:52:21;;;;;;;5.47;1.25;;;;;;;;;;6161992;23;20375;-91
2021/11/24 02:54:52;;;;;;;1.50;0.88;;;;;;;;;;6161834;23;20001;-92
2021/11/24 02:57:20;;;;;;;3.25;0.90;;;;;;;;;;6161931;23;20457;-92
2021/11/24 02:59:56;;;;;;;1.98;0.90;;;;;;;;;;6161907;23;20001;-94
2021/11/24 03:02:25;;;;;;;3.65;0.80;;;;;;;;;;6161755;23;20079;-93
2021/11/24 03:04:52;;;;;;;2.42;0.80;;;;;;;;;;6161775;23;20005;-92
2021/11/24 03:07:21;;;;;;;1.40;0.73;;;;;;;;;;6162187;23;20005;-92
2021/11/24 03:09:52;;;;;;;4.88;1.08;;;;;;;;;;6161956;23;20038;-92
2021/11/24 03:12:21;;;;;;;4.40;1.08;;;;;;;;;;6162004;23;20063;-92
2021/11/24 03:14:49;;;;;;;1.90;0.90;;;;;;;;;;6161673;23;20005;-93
2021/11/24 03:17:21;;;;;;;5.25;1.00;;;;;;;;;;6161528;23;20027;-92
2021/11/24 03:19:48;;;;;;;3.00;0.93;;;;;;;;;;6161706;23;20079;-92
2021/11/24 03:22:22;;;;;;;2.25;0.82;;;;;;;;;;6162302;23;20055;-92
2021/11/24 03:24:54;;;;;;;4.25;1.25;;;;;;;;;;6161572;23;20001;-92
2021/11/24 03:27:21;;;;;;;2.13;0.98;;;;;;;;;;6162686;23;20058;-92
2021/11/24 03:29:50;;;;;;;2.90;0.90;;;;;;;;;;6161577;23;20005;-92
2021/11/24 03:32:27;;;;;;;2.22;1.02;;;;;;;;;;6161355;23;20016;-92
2021/11/24 03:34:53;;;;;;;5.88;1.40;;;;;;;;;;6161695;23;20431;-92
2021/11/24 03:37:19;;;;;;;2.65;1.50;;;;;;;;;;6161931;23;20001;-93
2021/11/24 03:39:51;;;;;;;6.75;1.50;;;;;;;;;;6162290;23;19997;-93
2021/11/24 03:42:30;;;;;;;3.83;1.00;;;;;;;;;;6161851;23;20084;-92
2021/11/24 03:45:03;;;;;;;5.03;1.17;;;;;;;;;;6161977;23;20424;-93
2021/11/24 03:47:32;;;;;;;2.75;1.00;;;;;;;;;;6161351;23;20024;-92
2021/11/24 03:50:00;;;;;;;2.83;1.00;;;;;;;;;;6162231;23;20382;-91
2021/11/24 03:52:29;;;;;;;4.35;0.80;;;;;;;;;;6161358;23;20005;-92
2021/11/24 03:55:02;;;;;;;1.42;0.70;;;;;;;;;;6161343;23;20001;-92
2021/11/24 03:57:31;;;;;;;8.48;1.15;;;;;;;;;;6161911;23;20009;-92
2021/11/24 04:00:00;;;;;;;2.53;0.80;;;;;;;;;;6161293;23;19997;-92
2021/11/24 04:02:29;;;;;;;2.83;0.80;;;;;;;;;;6161625;23;20486;-93
2021/11/24 04:05:03;;;;;;;3.65;0.90;;;;;;;;;;6161238;23;20012;-92
2021/11/24 04:07:29;;;;;;;1.17;0.80;;;;;;;;;;6161292;23;20432;-92
2021/11/24 04:10:00;;;;;;;7.20;1.02;;;;;;;;;;6161218;23;20092;-93
2021/11/24 04:12:42;;;;;;;1.80;0.80;;;;;;;;;;6161108;23;20001;-92
2021/11/24 04:15:11;;;;;;;5.43;0.90;;;;;;;;;;6161074;23;20005;-93
2021/11/24 04:17:52;;;;;;;2.80;1.05;;;;;;;;;;6160929;23;20005;-92
2021/11/24 04:20:21;;;;;;;3.47;0.93;;;;;;;;;;6162134;23;20423;-92
2021/11/24 04:22:49;;;;;;;7.30;1.23;;;;;;;;;;6161065;23;20008;-93
2021/11/24 04:25:23;;;;;;;1.65;1.00;;;;;;;;;;6161380;23;19997;-91
2021/11/24 04:27:52;;;;;;;1.63;1.00;;;;;;;;;;6161648;23;20067;-92
2021/11/24 04:30:19;;;;;;;3.08;1.10;;;;;;;;;;6161484;23;20012;-93
2021/11/24 04:32:50;;;;;;;4.22;1.30;;;;;;;;;;6161018;23;20092;-93
2021/11/24 04:35:24;;;;;;;1.83;1.00;;;;;;;;;;6161554;23;20005;-92
2021/11/24 04:37:52;;;;;;;2.45;0.70;;;;;;;;;;6160901;23;20052;-92
2021/11/24 04:40:21;;;;;;;2.97;0.80;;;;;;;;;;6160954;23;20005;-92
2021/11/24 04:43:01;;;;;;;4.18;0.80;;;;;;;;;;6161417;23;20001;-92
2021/11/24 04:45:30;;;;;;;1.63;0.77;;;;;;;;;;6161349;23;19997;-92
2021/11/24 04:48:07;;;;;;;3.25;0.82;;;;;;;;;;6160812;23;20001;-92
2021/11/24 04:50:33;;;;;;;2.28;0.90;;;;;;;;;;6160822;23;20013;-92
2021/11/24 04:52:59;;;;;;;4.43;0.80;;;;;;;;;;6160794;23;20009;-92
2021/11/24 04:55:33;;;;;;;3.95;1.00;;;;;;;;;;6160928;23;20147;-92
2021/11/24 04:58:00;;;;;;;4.03;1.02;;;;;;;;;;6161777;23;20001;-91
2021/11/24 05:00:33;;;;;;;1.38;0.90;;;;;;;;;;6160672;23;20012;-93
2021/11/24 05:02:59;;;;;;;3.15;1.60;;;;;;;;;;6160823;23;20001;-91
2021/11/24 05:05:29;;;;;;;3.00;1.02;;;;;;;;;;6160586;23;20028;-92
2021/11/24 05:08:00;;;;;;;1.95;0.88;;;;;;;;;;6160688;23;20009;-92
2021/11/24 05:10:36;;;;;;;2.22;0.82;;;;;;;;;;6160727;23;20001;-93
2021/11/24 05:13:02;;;;;;;2.80;1.10;;;;;;;;;;6161919;23;20070;-93
2021/11/24 05:15:34;;;;;;;1.92;0.90;;;;;;;;;;6161291;23;20032;-94
2021/11/24 05:18:05;;;;;;;2.83;1.10;;;;;;;;;;6160691;23;20013;-94
2021/11/24 05:20:32;;;;;;;2.75;1.10;;;;;;;;;;6161211;23;20004;-94
2021/11/24 05:23:03;;;;;;;4.13;1.00;;;;;;;;;;6160463;23;20008;-92
2021/11/24 05:25:32;;;;;;;3.08;1.95;;;;;;;;;;6161485;23;20364;-93
2021/11/24 05:28:01;;;;;;;4.47;1.15;;;;;;;;;;6160579;23;20088;-94
2021/11/24 05:30:31;;;;;;;2.13;1.30;;;;;;;;;;6160744;23;20080;-94
2021/11/24 05:33:00;;;;;;;4.25;1.48;;;;;;;;;;6160826;23;20013;-95
2021/11/24 05:35:43;;;;;;;2.80;1.10;;;;;;;;;;6160415;23;20317;-94
2021/11/24 05:38:11;;;;;;;1.90;1.20;;;;;;;;;;6160470;23;20527;-95
2021/11/24 05:40:40;;;;;;;5.88;2.08;;;;;;;;;;6160927;23;20036;-94
2021/11/24 05:43:26;;;;;;;3.83;1.63;;;;;;;;;;6160850;23;20032;-95
2021/11/24 05:48:21;;;;;;;4.53;1.70;;;;;;;;;;6186850;23;20013;-93
2021/11/24 05:51:09;;;;;;;4.65;1.40;;;;;;;;;;6160976;23;20013;-93
2021/11/24 05:53:41;;;;;;;7.38;2.90;;;;;;;;;;6160502;23;20005;-93
2021/11/24 05:56:10;;;;;;;4.30;1.60;;;;;;;;;;6161211;23;20004;-93
2021/11/24 05:58:40;;;;;;;3.20;1.20;;;;;;;;;;6160404;23;20445;-93
2021/11/24 06:01:19;;;;;;;3.33;1.10;;;;;;;;;;6161483;23;20079;-94
2021/11/24 06:03:48;;;;;;;1.95;1.20;;;;;;;;;;6161790;23;20075;-94
2021/11/24 06:06:21;;;;;;;3.00;1.10;;;;;;;;;;6160785;23;20001;-95
2021/11/24 06:08:50;;;;;;;2.97;1.30;;;;;;;;;;6161901;23;20451;-95
2021/11/24 06:11:29;;;;;;;3.13;1.20;;;;;;;;;;6162358;23;20031;-93
2021/11/24 06:14:03;;;;;;;3.20;0.88;;;;;;;;;;6163214;23;20076;-95
2021/11/24 06:16:31;;;;;;;2.22;1.00;;;;;;;;;;6162416;23;20036;-95
2021/11/24 06:19:00;;;;;;;1.45;0.90;;;;;;;;;;6162141;23;20063;-95
2021/11/24 06:21:31;;;;;;;5.03;1.02;;;;;;;;;;6162687;23;20083;-93
2021/11/24 06:24:10;;;;;;;4.85;0.90;;;;;;;;;;6163119;23;20072;-94
2021/11/24 06:26:43;;;;;;;2.13;1.35;;;;;;;;;;6162667;23;20002;-93
2021/11/24 06:29:10;;;;;;;7.45;1.30;;;;;;;;;;6162690;23;20037;-92
2021/11/24 06:31:59;;;;;;;1.98;1.00;;;;;;;;;;6161967;23;20092;-92
2021/11/24 06:34:22;;;;;;;2.00;1.10;;;;;;;;;;6185600;23;20013;-94
2021/11/24 06:36:53;;;;;;;4.60;1.40;;;;;;;;;;6162768;23;20009;-93
2021/11/24 06:39:20;;;;;;;12.90;1.27;;;;;;;;;;6162592;23;20019;-94
2021/11/24 06:41:53;;;;;;;2.78;1.05;;;;;;;;;;6162512;23;20416;-92
2021/11/24 06:44:23;;;;;;;3.55;1.30;;;;;;;;;;6162066;23;20185;-93
2021/11/24 06:46:51;;;;;;;2.72;1.55;;;;;;;;;;6162412;23;20028;-93
2021/11/24 06:49:20;;;;;;;3.80;1.40;;;;;;;;;;6162107;23;20096;-92
2021/11/24 06:51:46;;;;;;;3.95;1.27;;;;;;;;;;6161771;23;20016;-93
2021/11/24 06:54:12;;;;;;;4.93;1.55;;;;;;;;;;6162216;23;20009;-92
2021/11/24 06:56:41;;;;;;;3.83;1.40;;;;;;;;;;6162395;23;20509;-92
2021/11/24 06:59:15;;;;;;;3.17;1.30;;;;;;;;;;6161998;23;20005;-92
2021/11/24 07:01:41;;;;;;;7.25;1.60;;;;;;;;;;6162121;23;20020;-92
2021/11/24 07:04:09;;;;;;;3.80;1.40;;;;;;;;;;6161846;23;20432;-92
2021/11/24 07:06:40;;;;;;;3.58;1.60;;;;;;;;;;6161781;23;20001;-92
2021/11/24 07:09:14;;;;;;;3.63;1.70;;;;;;;;;;6163410;23;20005;-92
2021/11/24 07:11:41;;;;;;;6.10;2.00;;;;;;;;;;6162134;23;20009;-92
2021/11/24 07:14:10;;;;;;;4.68;1.55;;;;;;;;;;6162260;23;20004;-94
2021/11/24 07:16:40;;;;;;;4.15;1.77;;;;;;;;;;6162691;23;20047;-93
2021/11/24 07:19:09;;;;;;;2.90;1.60;;;;;;;;;;6162339;23;20019;-92
2021/11/24 07:21:40;;;;;;;4.95;1.77;;;;;;;;;;6162443;23;20004;-93
2021/11/24 07:24:14;;;;;;;3.38;1.42;;;;;;;;;;6161787;23;20430;-92
2021/11/24 07:26:42;;;;;;;3.38;1.80;;;;;;;;;;6161989;23;20185;-93
2021/11/24 07:29:09;;;;;;;4.07;2.10;;;;;;;;;;6161814;23;20012;-92
2021/11/24 07:31:40;;;;;;;5.03;1.73;;;;;;;;;;6161471;23;20414;-93
2021/11/24 07:34:09;;;;;;;4.53;2.03;;;;;;;;;;6161729;23;20059;-93
2021/11/24 07:36:40;;;;;;;5.55;1.80;;;;;;;;;;6161795;23;20013;-91
2021/11/24 07:39:13;;;;;;;3.38;1.70;;;;;;;;;;6161424;23;20009;-93
2021/11/24 07:41:39;;;;;;;5.93;1.80;;;;;;;;;;6162378;23;19998;-91
2021/11/24 07:44:06;;;;;;;1.90;1.60;;;;;;;;;;6187467;23;19998;-91
2021/11/24 07:46:32;;;;;;;3.38;1.65;;;;;;;;;;6161394;23;20001;-92
2021/11/24 07:49:01;;;;;;;5.20;1.70;;;;;;;;;;6161437;23;20084;-93
2021/11/24 07:51:42;;;;;;;3.53;2.15;;;;;;;;;;6161723;23;20036;-95
2021/11/24 07:54:12;;;;;;;4.53;2.05;;;;;;;;;;6161633;23;20001;-92
2021/11/24 07:56:41;;;;;;;6.22;1.95;;;;;;;;;;6162322;23;20004;-95
2021/11/24 07:59:24;;;;;;;5.63;1.83;;;;;;;;;;6161945;23;20087;-95
2021/11/24 08:01:52;;;;;;;3.45;2.08;;;;;;;;;;6163444;23;20494;-95
2021/11/24 08:04:21;;;;;;;5.30;2.20;;;;;;;;;;6162082;23;20002;-95
2021/11/24 08:06:50;;;;;;;4.43;2.00;;;;;;;;;;6162084;23;20439;-96
2021/11/24 08:09:29;;;;;;;4.15;2.55;;;;;;;;;;6164093;23;20024;-96
2021/11/24 08:12:03;;;;;;;4.13;2.22;;;;;;;;;;6167457;23;20009;-96
2021/11/24 08:14:32;;;;;;;4.80;2.25;;;;;;;;;;6167012;23;20012;-96
2021/11/24 08:17:01;;;;;;;5.95;2.60;;;;;;;;;;6162993;23;20011;-95
2021/11/24 08:19:30;;;;;;;4.22;2.65;;;;;;;;;;6163335;23;20018;-96
2021/11/24 08:22:11;;;;;;;4.00;2.22;;;;;;;;;;6176541;23;20384;-96
2021/11/24 08:24:54;;;;;;;5.45;2.22;;;;;;;;;;6195304;23;20072;-96
2021/11/24 08:27:22;;;;;;;5.97;2.53;;;;;;;;;;6161681;23;20064;-96
2021/11/24 08:29:51;;;;;;;4.72;2.33;;;;;;;;;;6161861;23;20028;-94
2021/11/24 08:32:20;;;;;;;3.65;2.25;;;;;;;;;;6160733;23;20061;-95
2021/11/24 08:34:51;;;;;;;2.85;1.77;;;;;;;;;;6161320;23;20001;-94
2021/11/24 08:37:20;;;;;;;2.97;1.77;;;;;;;;;;6161582;23;19997;-94
2021/11/24 08:39:54;;;;;;;4.07;2.08;;;;;;;;;;6160907;23;20454;-95
2021/11/24 08:42:25;;;;;;;7.90;2.58;;;;;;;;;;6166405;23;20012;-95
2021/11/24 08:45:23;;;;;;;4.70;2.40;;;;;;;;;;6169296;23;20005;-96
2021/11/24 08:48:10;;;;;;;3.97;2.50;;;;;;;;;;6208297;23;20017;-96
2021/11/24 08:50:53;;;;;;;5.60;3.60;;;;;;;;;;6122896;23;20081;-96
2021/11/24 08:53:30;;;;;;;5.00;2.90;;;;;;;;;;6173328;23;20016;-95
2021/11/24 08:56:14;;;;;;;7.97;3.97;;;;;;;;;;6173900;23;20005;-95
2021/11/24 08:58:43;;;;;;;4.88;3.70;;;;;;;;;;6151948;23;20009;-96
2021/11/24 09:01:09;;;;;;;7.90;3.88;;;;;;;;;;6172378;23;20038;-95
2021/11/24 09:03:43;;;;;;;9.25;3.80;;;;;;;;;;6164185;23;20020;-93
2021/11/24 09:06:09;;;;;;;7.53;4.25;;;;;;;;;;6162183;23;20397;-93
2021/11/24 09:08:43;;;;;;;8.30;4.45;;;;;;;;;;6161423;23;20016;-91
2021/11/24 09:11:09;;;;;;;9.25;4.05;;;;;;;;;;6160772;23;20009;-91
2021/11/24 09:13:38;;;;;;;6.18;3.60;;;;;;;;;;6160934;23;20016;-90
2021/11/24 09:16:12;;;;;;;5.70;3.20;;;;;;;;;;6160050;23;20012;-92
2021/11/24 09:18:41;;;;;;;5.25;2.60;;;;;;;;;;6161152;23;20009;-92
2021/11/24 09:21:07;;;;;;;5.38;2.70;;;;;;;;;;6160469;23;20021;-91
2021/11/24 09:23:34;;;;;;;3.63;2.40;;;;;;;;;;6160921;23;20009;-92
2021/11/24 09:26:14;;;;;;;3.55;2.05;;;;;;;;;;6161201;23;20028;-93
2021/11/24 09:28:41;;;;;;;3.90;2.25;;;;;;;;;;6162613;23;20084;-94
2021/11/24 09:31:10;;;;;;;5.15;2.33;;;;;;;;;;6160915;23;20012;-93
2021/11/24 09:33:43;;;;;;;4.40;2.33;;;;;;;;;;6161166;23;20017;-94
2021/11/24 09:36:12;;;;;;;4.82;2.60;;;;;;;;;;6162323;23;20075;-94
2021/11/24 09:38:40;;;;;;;3.55;2.70;;;;;;;;;;6160455;23;20036;-92
2021/11/24 09:41:14;;;;;;;3.97;2.13;;;;;;;;;;6160950;23;20008;-93
2021/11/24 09:43:44;;;;;;;5.43;2.30;;;;;;;;;;6163713;23;20004;-91
2021/11/24 09:46:13;;;;;;;4.85;2.78;;;;;;;;;;6162492;23;20005;-92
2021/11/24 09:48:41;;;;;;;3.40;1.90;;;;;;;;;;6162761;23;20032;-91
2021/11/24 09:51:07;;;;;;;4.82;2.05;;;;;;;;;;6162416;23;20361;-91
2021/11/24 09:53:33;;;;;;;2.58;1.60;;;;;;;;;;6162439;23;20109;-92
2021/11/24 09:56:02;;;;;;;5.35;1.88;;;;;;;;;;6162486;23;20001;-93
2021/11/24 09:58:28;;;;;;;3.47;1.30;;;;;;;;;;6169915;23;20041;-94
2021/11/24 10:01:02;;;;;;;4.03;1.30;;;;;;;;;;6162495;23;20009;-94
2021/11/24 10:03:30;;;;;;;3.50;1.30;;;;;;;;;;6163126;23;20005;-96
2021/11/24 10:05:59;;;;;;;2.47;1.50;;;;;;;;;;6164564;23;20001;-95
2021/11/24 10:08:42;;;;;;;3.78;1.42;;;;;;;;;;6162551;23;20483;-95
2021/11/24 10:11:11;;;;;;;2.58;1.40;;;;;;;;;;6162816;23;20005;-96
2021/11/24 10:13:49;;;;;;;2.38;1.48;;;;;;;;;;6163346;23;20005;-94
2021/11/24 10:16:40;;;;;;;3.58;2.13;;;;;;;;;;6162678;23;20012;-93
2021/11/24 10:19:11;;;;;;;3.13;1.52;;;;;;;;;;6163035;23;20432;-93
2021/11/24 10:21:57;;;;;;;4.07;1.60;;;;;;;;;;6162502;23;20005;-93
2021/11/24 10:24:34;;;;;;;2.95;1.25;;;;;;;;;;6161972;23;20005;-94
2021/11/24 10:27:02;;;;;;;2.50;1.60;;;;;;;;;;6163551;23;20005;-95
2021/11/24 10:35:14;;;;;;;2.55;1.50;;;;;;;;;;6171202;23;20076;-73
2021/11/24 10:37:40;;;;;;;6.85;1.88;;;;;;;;;;6172697;23;20341;-72
2021/11/24 10:40:08;;;;;;;8.73;2.30;;;;;;;;;;6172948;23;20076;-72
2021/11/24 10:42:40;;;;;;;10.73;2.03;;;;;;;;;;6172479;23;20282;-72
2021/11/24 10:45:09;;;;;;;3.45;1.30;;;;;;;;;;6170405;23;20016;-70
2021/11/24 10:47:35;;;;;;;4.22;1.15;;;;;;;;;;6173557;23;20020;-72
2021/11/24 10:50:04;;;;;;;4.70;1.27;;;;;;;;;;6146735;23;20011;-72
2021/11/24 10:52:32;;;;;;;3.50;1.10;;;;;;;;;;6172091;23;19997;-72
2021/11/24 10:55:04;;;;;;;3.80;1.42;;;;;;;;;;6171831;23;20052;-72
2021/11/24 10:57:31;;;;;;;2.92;1.20;;;;;;;;;;6146285;23;20068;-71
2021/11/24 11:00:06;;;;;;;3.05;1.40;;;;;;;;;;6170414;23;20061;-72
2021/11/24 11:02:34;;;;;;;4.50;1.48;;;;;;;;;;6172731;23;20005;-76
2021/11/24 11:05:03;;;;;;;3.28;1.50;;;;;;;;;;6171589;23;20009;-72
2021/11/24 11:07:31;;;;;;;2.38;1.52;;;;;;;;;;6170529;23;20141;-73
2021/11/24 11:10:13;;;;;;;5.13;1.70;;;;;;;;;;6172993;23;20454;-73
2021/11/24 11:12:41;;;;;;;4.90;1.60;;;;;;;;;;6169860;23;20007;-71
2021/11/24 11:15:24;;;;;;;2.47;1.58;;;;;;;;;;6179346;23;20037;-76
2021/11/24 11:17:52;;;;;;;2.25;1.48;;;;;;;;;;6171959;23;20009;-76
2021/11/24 11:20:19;;;;;;;3.42;1.58;;;;;;;;;;6170645;23;20378;-74
2021/11/24 11:22:45;;;;;;;3.10;1.90;;;;;;;;;;6173043;23;20080;-70
2021/11/24 11:25:12;;;;;;;4.68;1.70;;;;;;;;;;6172739;23;20024;-77
2021/11/24 11:27:39;;;;;;;8.55;2.25;;;;;;;;;;6172377;23;20396;-75
2021/11/24 11:30:06;;;;;;;2.78;2.30;;;;;;;;;;6144268;23;20770;-76
2021/11/24 11:32:32;;;;;;;5.30;2.40;;;;;;;;;;6172116;23;20008;-75
2021/11/24 11:34:58;;;;;;;3.55;1.70;;;;;;;;;;6172899;23;20009;-74
2021/11/24 11:37:25;;;;;;;5.05;1.80;;;;;;;;;;6170779;23;20048;-76
2021/11/24 11:39:51;;;;;;;2.28;1.77;;;;;;;;;;6168600;23;20005;-72
2021/11/24 11:42:18;;;;;;;5.32;1.88;;;;;;;;;;6169687;23;20001;-73
2021/11/24 11:44:45;;;;;;;3.88;2.30;;;;;;;;;;6168792;23;20012;-76
2021/11/24 11:47:11;;;;;;;2.78;1.90;;;;;;;;;;6143661;23;20592;-76
2021/11/24 11:49:38;;;;;;;3.47;1.92;;;;;;;;;;6170178;23;20004;-76
2021/11/24 11:52:09;;;;;;;3.33;2.40;;;;;;;;;;6170279;23;20040;-75
2021/11/24 11:54:35;;;;;;;2.20;1.55;;;;;;;;;;6166165;23;20009;-75
2021/11/24 11:57:04;;;;;;;4.75;2.45;;;;;;;;;;6169650;23;20012;-76
2021/11/24 11:59:33;;;;;;;3.83;2.30;;;;;;;;;;6169510;23;20019;-72
2021/11/24 12:02:00;;;;;;;3.60;2.50;;;;;;;;;;6169507;23;20012;-76
2021/11/24 12:04:40;;;;;;;2.92;2.20;;;;;;;;;;6169367;23;20015;-75
2021/11/24 12:07:16;;;;;;;4.32;2.15;;;;;;;;;;6167496;23;20013;-76
2021/11/24 12:09:48;;;;;;;3.25;2.45;;;;;;;;;;6169711;23;20005;-76
2021/11/24 12:12:14;;;;;;;5.28;2.22;;;;;;;;;;6169386;23;20001;-75
2021/11/24 12:14:43;;;;;;;3.40;2.30;;;;;;;;;;6168909;23;20357;-76
2021/11/24 12:17:36;;;;;;;4.57;2.60;;;;;;;;;;6167896;23;20032;-71
2021/11/24 12:20:12;;;;;;;3.75;2.30;;;;;;;;;;6169872;23;20489;-73
2021/11/24 12:22:51;;;;;;;5.25;2.28;;;;;;;;;;6142960;23;20430;-76
2021/11/24 12:25:21;;;;;;;8.18;2.70;;;;;;;;;;6167695;23;20369;-76
2021/11/24 12:27:53;;;;;;;3.78;2.35;;;;;;;;;;6142719;23;20013;-77
2021/11/24 12:30:47;;;;;;;3.28;2.42;;;;;;;;;;6143101;23;20005;-76
2021/11/24 12:33:16;;;;;;;4.93;2.83;;;;;;;;;;6169543;23;20005;-76
2021/11/24 12:35:52;;;;;;;3.58;2.47;;;;;;;;;;6169267;23;20005;-75
2021/11/24 12:38:19;;;;;;;5.05;2.75;;;;;;;;;;6169370;23;20037;-75
2021/11/24 12:40:46;;;;;;;3.72;2.58;;;;;;;;;;6169556;23;20009;-74
2021/11/24 12:43:17;;;;;;;3.58;2.42;;;;;;;;;;6168483;23;20008;-72
2021/11/24 12:45:59;;;;;;;3.15;2.30;;;;;;;;;;6168027;23;20039;-72
2021/11/24 12:48:31;;;;;;;3.88;2.15;;;;;;;;;;6169210;23;20008;-76
2021/11/24 12:50:59;;;;;;;3.17;2.35;;;;;;;;;;6169822;23;20063;-75
2021/11/24 12:53:25;;;;;;;2.70;2.40;;;;;;;;;;6167778;23;20059;-75
2021/11/24 12:56:03;;;;;;;4.10;2.70;;;;;;;;;;6167090;23;20015;-74
2021/11/24 12:58:29;;;;;;;2.90;2.45;;;;;;;;;;6169083;23;20055;-74
2021/11/24 13:00:56;;;;;;;4.10;2.53;;;;;;;;;;6142783;23;20005;-74
2021/11/24 13:03:26;;;;;;;3.28;2.42;;;;;;;;;;6143321;23;20393;-74
2021/11/24 13:05:56;;;;;;;3.40;2.40;;;;;;;;;;6168329;23;20002;-74
2021/11/24 13:08:22;;;;;;;3.00;2.08;;;;;;;;;;6169549;23;20072;-76
2021/11/24 13:11:00;;;;;;;4.45;2.40;;;;;;;;;;6168906;23;20577;-75
2021/11/24 13:13:27;;;;;;;3.17;2.25;;;;;;;;;;6167631;23;20611;-75
2021/11/24 13:15:53;;;;;;;2.85;1.92;;;;;;;;;;6168847;23;20009;-74
2021/11/24 13:18:23;;;;;;;2.60;2.00;;;;;;;;;;6169129;23;20015;-74
2021/11/24 13:20:49;;;;;;;2.42;2.08;;;;;;;;;;6167402;23;20028;-75
2021/11/24 13:23:15;;;;;;;4.03;2.00;;;;;;;;;;6169271;23;20001;-76
2021/11/24 13:25:42;;;;;;;6.15;2.30;;;;;;;;;;6169534;23;20079;-75
2021/11/24 13:28:12;;;;;;;3.40;1.63;;;;;;;;;;6169150;23;20080;-75
2021/11/24 13:30:42;;;;;;;3.05;1.90;;;;;;;;;;6167333;23;20008;-76
2021/11/24 13:33:12;;;;;;;2.22;1.67;;;;;;;;;;6168955;23;20075;-75
2021/11/24 13:35:43;;;;;;;2.42;1.67;;;;;;;;;;6168971;23;20012;-74
2021/11/24 13:38:10;;;;;;;3.88;1.40;;;;;;;;;;6169097;23;20009;-75
2021/11/24 13:40:41;;;;;;;4.20;1.63;;;;;;;;;;6167968;23;20016;-75
2021/11/24 13:43:09;;;;;;;3.13;1.85;;;;;;;;;;6167388;23;20040;-74
2021/11/24 13:45:36;;;;;;;2.17;1.70;;;;;;;;;;6169188;23;20001;-76
2021/11/24 13:48:18;;;;;;;4.43;1.70;;;;;;;;;;6167940;23;20009;-73
2021/11/24 13:50:45;;;;;;;;;;;;;;;;;;6165089;23;20084;-71
2021/11/24 13:53:21;;;;;;;2.90;1.73;;;;;;;;;;6168487;23;20324;-70
2021/11/24 13:56:05;;;;;;;2.50;1.63;;;;;;;;;;6166022;23;20010;-71
2021/11/24 13:58:32;;;;;;;3.42;1.67;;;;;;;;;;6168325;23;20020;-71
2021/11/24 14:01:30;;;;;;;2.60;1.70;;;;;;;;;;6167313;23;20032;-71
2021/11/24 14:03:58;;;;;;;2.78;1.67;;;;;;;;;;6118327;23;20013;-71
2021/11/24 14:06:39;;;;;;;3.17;1.55;;;;;;;;;;6168191;23;20005;-71
2021/11/24 14:09:15;;;;;;;8.30;2.20;;;;;;;;;;6177247;23;20031;-71
2021/11/24 14:11:56;;;;;;;7.80;1.88;;;;;;;;;;6145976;23;20009;-70
2021/11/24 14:14:23;;;;;;;7.03;2.35;;;;;;;;;;6165188;23;20008;-72
2021/11/24 14:16:56;;;;;;;4.72;1.50;;;;;;;;;;6168150;23;20001;-71
2021/11/24 14:19:23;;;;;;;2.85;1.83;;;;;;;;;;6168035;23;20013;-75
2021/11/24 14:21:49;;;;;;;15.85;2.35;;;;;;;;;;6168582;23;20001;-72
2021/11/24 14:24:16;;;;;;;5.68;1.70;;;;;;;;;;6168315;23;20506;-73
2021/11/24 14:26:42;;;;;;;3.38;1.60;;;;;;;;;;6168040;23;20100;-71
2021/11/24 14:29:08;;;;;;;3.28;1.70;;;;;;;;;;6166915;23;20005;-72
2021/11/24 14:31:34;;;;;;;3.38;1.60;;;;;;;;;;6170296;23;20061;-74
2021/11/24 14:34:01;;;;;;;2.08;1.77;;;;;;;;;;6170040;23;20345;-72
2021/11/24 14:36:31;;;;;;;3.75;1.70;;;;;;;;;;6169683;23;20009;-77
2021/11/24 14:38:57;;;;;;;2.85;1.70;;;;;;;;;;6169801;23;20517;-71
2021/11/24 14:41:23;;;;;;;3.53;2.00;;;;;;;;;;6168264;23;20001;-71
2021/11/24 14:43:51;;;;;;;5.90;1.60;;;;;;;;;;6168924;23;20089;-73
2021/11/24 14:46:17;;;;;;;3.50;1.50;;;;;;;;;;6169943;23;20616;-71
2021/11/24 14:48:43;;;;;;;2.63;1.73;;;;;;;;;;6169749;23;20016;-71
2021/11/24 14:51:09;;;;;;;3.28;1.80;;;;;;;;;;6169901;23;20004;-71
2021/11/24 14:53:35;;;;;;;3.88;2.05;;;;;;;;;;6165305;23;20079;-71
2021/11/24 14:56:03;;;;;;;3.13;1.90;;;;;;;;;;6167800;23;20032;-74
2021/11/24 14:58:30;;;;;;;2.17;1.60;;;;;;;;;;6168048;23;20080;-71
2021/11/24 15:00:56;;;;;;;3.88;1.90;;;;;;;;;;6167952;23;20020;-73
2021/11/24 15:03:23;;;;;;;2.83;1.48;;;;;;;;;;6166630;23;20060;-73
2021/11/24 15:05:50;;;;;;;1.92;1.50;;;;;;;;;;6169322;23;19997;-73
2021/11/24 15:08:16;;;;;;;2.20;1.70;;;;;;;;;;6168091;23;20020;-72
2021/11/24 15:10:43;;;;;;;3.25;1.75;;;;;;;;;;6169589;23;20028;-70
2021/11/24 15:13:10;;;;;;;4.90;1.70;;;;;;;;;;6167597;23;20096;-72